sensor_id;sensor_type;location;lat;lon;timestamp;pressure;altitude;pressure_sealevel;temperature;humidity
84878;BME280;75140;47.754;8.840;2024-03-17T00:00:32;97399.50;;;7.07;92.88
84878;BME280;75140;47.754;8.840;2024-03-17T00:02:57;97391.59;;;7.07;93.09
84878;BME280;75140;47.754;8.840;2024-03-17T00:05:23;97390.59;;;7.08;93.25
84878;BME280;75140;47.754;8.840;2024-03-17T00:07:48;97395.47;;;7.03;92.81
84878;BME280;75140;47.754;8.840;2024-03-17T00:10:14;97399.75;;;7.14;92.91
84878;BME280;75140;47.754;8.840;2024-03-17T00:12:40;97391.53;;;7.17;92.50
84878;BME280;75140;47.754;8.840;2024-03-17T00:15:06;97401.94;;;7.18;93.09
84878;BME280;75140;47.754;8.840;2024-03-17T00:17:32;97397.81;;;7.16;92.99
84878;BME280;75140;47.754;8.840;2024-03-17T00:20:00;97397.41;;;7.11;93.08
84878;BME280;75140;47.754;8.840;2024-03-17T00:22:28;97402.03;;;6.99;93.60
84878;BME280;75140;47.754;8.840;2024-03-17T00:24:53;97399.00;;;6.94;93.80
84878;BME280;75140;47.754;8.840;2024-03-17T00:27:19;97389.25;;;6.95;93.14
84878;BME280;75140;47.754;8.840;2024-03-17T00:29:44;97390.09;;;6.95;93.31
84878;BME280;75140;47.754;8.840;2024-03-17T00:32:10;97394.69;;;6.93;93.62
84878;BME280;75140;47.754;8.840;2024-03-17T00:34:36;97398.72;;;6.97;93.06
84878;BME280;75140;47.754;8.840;2024-03-17T00:37:02;97390.09;;;6.95;93.65
84878;BME280;75140;47.754;8.840;2024-03-17T00:39:28;97391.88;;;7.04;93.54
84878;BME280;75140;47.754;8.840;2024-03-17T00:41:53;97384.09;;;7.03;93.12
84878;BME280;75140;47.754;8.840;2024-03-17T00:44:18;97387.72;;;7.02;92.31
84878;BME280;75140;47.754;8.840;2024-03-17T00:46:45;97374.97;;;6.97;92.19
84878;BME280;75140;47.754;8.840;2024-03-17T00:49:12;97382.09;;;6.87;92.56
84878;BME280;75140;47.754;8.840;2024-03-17T00:51:37;97381.00;;;6.80;92.60
84878;BME280;75140;47.754;8.840;2024-03-17T00:54:03;97383.44;;;6.91;93.37
84878;BME280;75140;47.754;8.840;2024-03-17T00:56:29;97380.25;;;6.88;92.59
84878;BME280;75140;47.754;8.840;2024-03-17T00:58:54;97369.44;;;6.81;93.23
84878;BME280;75140;47.754;8.840;2024-03-17T01:01:19;97375.03;;;6.78;93.28
84878;BME280;75140;47.754;8.840;2024-03-17T01:03:46;97374.75;;;6.72;93.80
84878;BME280;75140;47.754;8.840;2024-03-17T01:06:11;97370.75;;;6.68;93.03
84878;BME280;75140;47.754;8.840;2024-03-17T01:08:36;97375.41;;;6.83;92.46
84878;BME280;75140;47.754;8.840;2024-03-17T01:11:02;97369.88;;;6.77;93.61
84878;BME280;75140;47.754;8.840;2024-03-17T01:13:28;97355.78;;;6.59;93.16
84878;BME280;75140;47.754;8.840;2024-03-17T01:15:53;97365.16;;;6.80;92.43
84878;BME280;75140;47.754;8.840;2024-03-17T01:18:19;97361.28;;;6.75;93.08
84878;BME280;75140;47.754;8.840;2024-03-17T01:20:44;97350.72;;;6.84;92.77
84878;BME280;75140;47.754;8.840;2024-03-17T01:23:11;97357.88;;;6.92;92.68
84878;BME280;75140;47.754;8.840;2024-03-17T01:25:36;97354.16;;;6.85;93.36
84878;BME280;75140;47.754;8.840;2024-03-17T01:28:05;97344.59;;;6.74;93.32
84878;BME280;75140;47.754;8.840;2024-03-17T01:30:31;97334.66;;;6.68;93.50
84878;BME280;75140;47.754;8.840;2024-03-17T01:32:58;97323.19;;;6.87;93.10
84878;BME280;75140;47.754;8.840;2024-03-17T01:35:24;97325.38;;;6.91;92.67
84878;BME280;75140;47.754;8.840;2024-03-17T01:37:50;97322.75;;;6.91;92.67
84878;BME280;75140;47.754;8.840;2024-03-17T01:40:15;97323.34;;;6.85;92.60
84878;BME280;75140;47.754;8.840;2024-03-17T01:42:41;97326.03;;;6.66;93.51
84878;BME280;75140;47.754;8.840;2024-03-17T01:45:32;97332.72;;;6.61;94.48
84878;BME280;75140;47.754;8.840;2024-03-17T01:47:59;97320.91;;;6.65;93.56
84878;BME280;75140;47.754;8.840;2024-03-17T01:50:35;97324.50;;;6.73;93.73
84878;BME280;75140;47.754;8.840;2024-03-17T01:53:06;97329.94;;;6.62;93.69
84878;BME280;75140;47.754;8.840;2024-03-17T01:55:35;97320.41;;;6.52;94.97
84878;BME280;75140;47.754;8.840;2024-03-17T01:58:02;97319.38;;;6.62;93.92
84878;BME280;75140;47.754;8.840;2024-03-17T02:00:28;97312.56;;;6.69;93.45
84878;BME280;75140;47.754;8.840;2024-03-17T02:02:56;97307.44;;;6.68;93.73
84878;BME280;75140;47.754;8.840;2024-03-17T02:05:21;97293.13;;;6.70;93.36
84878;BME280;75140;47.754;8.840;2024-03-17T02:07:47;97300.91;;;6.62;93.72
84878;BME280;75140;47.754;8.840;2024-03-17T02:10:12;97298.28;;;6.62;94.17
84878;BME280;75140;47.754;8.840;2024-03-17T02:12:38;97293.81;;;6.72;93.78
84878;BME280;75140;47.754;8.840;2024-03-17T02:15:03;97295.19;;;6.76;93.47
84878;BME280;75140;47.754;8.840;2024-03-17T02:17:33;97292.94;;;6.81;94.20
84878;BME280;75140;47.754;8.840;2024-03-17T02:19:59;97287.72;;;6.62;93.91
84878;BME280;75140;47.754;8.840;2024-03-17T02:22:25;97284.97;;;6.64;94.43
84878;BME280;75140;47.754;8.840;2024-03-17T02:24:52;97281.88;;;6.68;93.62
84878;BME280;75140;47.754;8.840;2024-03-17T02:27:18;97279.03;;;6.79;93.61
84878;BME280;75140;47.754;8.840;2024-03-17T02:29:44;97284.59;;;6.86;93.95
84878;BME280;75140;47.754;8.840;2024-03-17T02:32:10;97279.16;;;6.87;93.02
84878;BME280;75140;47.754;8.840;2024-03-17T02:34:37;97271.03;;;6.98;93.25
84878;BME280;75140;47.754;8.840;2024-03-17T02:37:04;97268.63;;;6.87;93.10
84878;BME280;75140;47.754;8.840;2024-03-17T02:39:31;97261.66;;;6.86;93.21
84878;BME280;75140;47.754;8.840;2024-03-17T02:44:27;97265.44;;;7.01;93.13
84878;BME280;75140;47.754;8.840;2024-03-17T02:46:53;97266.06;;;6.95;93.53
84878;BME280;75140;47.754;8.840;2024-03-17T02:49:18;97253.19;;;6.83;93.92
84878;BME280;75140;47.754;8.840;2024-03-17T02:51:44;97259.91;;;6.77;94.24
84878;BME280;75140;47.754;8.840;2024-03-17T02:54:09;97262.44;;;6.69;94.02
84878;BME280;75140;47.754;8.840;2024-03-17T02:56:34;97253.44;;;6.62;95.07
84878;BME280;75140;47.754;8.840;2024-03-17T02:59:00;97258.31;;;6.67;93.96
84878;BME280;75140;47.754;8.840;2024-03-17T03:01:26;97254.81;;;6.66;93.64
84878;BME280;75140;47.754;8.840;2024-03-17T03:03:51;97260.50;;;6.71;93.65
84878;BME280;75140;47.754;8.840;2024-03-17T03:06:16;97252.88;;;6.68;93.86
84878;BME280;75140;47.754;8.840;2024-03-17T03:08:44;97257.16;;;6.69;93.97
84878;BME280;75140;47.754;8.840;2024-03-17T03:11:14;97256.81;;;6.82;93.73
84878;BME280;75140;47.754;8.840;2024-03-17T03:13:40;97247.66;;;6.86;93.39
84878;BME280;75140;47.754;8.840;2024-03-17T03:16:11;97243.28;;;6.94;92.40
84878;BME280;75140;47.754;8.840;2024-03-17T03:18:37;97243.97;;;6.96;92.80
84878;BME280;75140;47.754;8.840;2024-03-17T03:21:04;97243.69;;;6.99;92.22
84878;BME280;75140;47.754;8.840;2024-03-17T03:23:30;97244.28;;;7.11;92.25
84878;BME280;75140;47.754;8.840;2024-03-17T03:25:56;97249.34;;;7.22;91.19
84878;BME280;75140;47.754;8.840;2024-03-17T03:28:23;97242.88;;;7.16;92.80
84878;BME280;75140;47.754;8.840;2024-03-17T03:30:48;97240.63;;;7.21;92.08
84878;BME280;75140;47.754;8.840;2024-03-17T03:33:14;97241.28;;;7.06;92.40
84878;BME280;75140;47.754;8.840;2024-03-17T03:35:39;97246.09;;;7.10;92.40
84878;BME280;75140;47.754;8.840;2024-03-17T03:38:05;97245.72;;;7.05;93.11
84878;BME280;75140;47.754;8.840;2024-03-17T03:40:30;97242.22;;;7.05;93.14
84878;BME280;75140;47.754;8.840;2024-03-17T03:42:56;97239.38;;;6.98;92.87
84878;BME280;75140;47.754;8.840;2024-03-17T03:45:22;97242.69;;;7.00;92.74
84878;BME280;75140;47.754;8.840;2024-03-17T03:47:49;97245.41;;;6.91;92.94
84878;BME280;75140;47.754;8.840;2024-03-17T03:50:17;97246.03;;;6.75;93.83
84878;BME280;75140;47.754;8.840;2024-03-17T03:52:42;97239.22;;;6.73;93.75
84878;BME280;75140;47.754;8.840;2024-03-17T03:55:09;97249.38;;;6.77;94.10
84878;BME280;75140;47.754;8.840;2024-03-17T03:57:43;97255.22;;;6.71;94.83
84878;BME280;75140;47.754;8.840;2024-03-17T04:00:11;97251.09;;;6.59;95.11
84878;BME280;75140;47.754;8.840;2024-03-17T04:02:41;97243.97;;;6.69;94.67
84878;BME280;75140;47.754;8.840;2024-03-17T04:05:07;97244.13;;;6.68;94.61
84878;BME280;75140;47.754;8.840;2024-03-17T04:07:33;97242.47;;;6.67;94.53
84878;BME280;75140;47.754;8.840;2024-03-17T04:09:59;97248.00;;;6.73;94.16
84878;BME280;75140;47.754;8.840;2024-03-17T04:12:25;97248.81;;;6.74;94.72
84878;BME280;75140;47.754;8.840;2024-03-17T04:14:50;97250.53;;;6.65;94.25
84878;BME280;75140;47.754;8.840;2024-03-17T04:17:19;97246.91;;;6.66;94.29
84878;BME280;75140;47.754;8.840;2024-03-17T04:19:47;97242.63;;;6.65;93.85
84878;BME280;75140;47.754;8.840;2024-03-17T04:22:13;97246.81;;;6.58;94.70
84878;BME280;75140;47.754;8.840;2024-03-17T04:24:39;97246.91;;;6.66;93.85
84878;BME280;75140;47.754;8.840;2024-03-17T04:27:04;97239.69;;;6.68;94.75
84878;BME280;75140;47.754;8.840;2024-03-17T04:29:29;97234.41;;;6.68;93.88
84878;BME280;75140;47.754;8.840;2024-03-17T04:31:55;97246.06;;;6.66;93.35
84878;BME280;75140;47.754;8.840;2024-03-17T04:34:20;97248.38;;;6.51;95.11
84878;BME280;75140;47.754;8.840;2024-03-17T04:36:46;97243.53;;;6.47;94.78
84878;BME280;75140;47.754;8.840;2024-03-17T04:39:12;97235.88;;;6.53;94.53
84878;BME280;75140;47.754;8.840;2024-03-17T04:41:37;97237.97;;;6.50;94.28
84878;BME280;75140;47.754;8.840;2024-03-17T04:44:04;97231.16;;;6.47;94.96
84878;BME280;75140;47.754;8.840;2024-03-17T04:46:31;97231.69;;;6.60;94.47
84878;BME280;75140;47.754;8.840;2024-03-17T04:48:57;97244.19;;;6.58;93.97
84878;BME280;75140;47.754;8.840;2024-03-17T04:51:22;97232.88;;;6.39;94.44
84878;BME280;75140;47.754;8.840;2024-03-17T04:53:47;97236.34;;;6.39;95.00
84878;BME280;75140;47.754;8.840;2024-03-17T04:56:13;97243.75;;;6.26;95.66
84878;BME280;75140;47.754;8.840;2024-03-17T04:58:38;97250.03;;;6.16;95.77
84878;BME280;75140;47.754;8.840;2024-03-17T05:01:09;97253.75;;;6.13;96.37
84878;BME280;75140;47.754;8.840;2024-03-17T05:03:35;97254.09;;;6.00;96.92
84878;BME280;75140;47.754;8.840;2024-03-17T05:06:02;97254.22;;;5.99;95.81
84878;BME280;75140;47.754;8.840;2024-03-17T05:08:29;97255.19;;;5.98;95.75
84878;BME280;75140;47.754;8.840;2024-03-17T05:11:02;97245.63;;;5.97;95.38
84878;BME280;75140;47.754;8.840;2024-03-17T05:13:31;97263.25;;;5.96;95.36
84878;BME280;75140;47.754;8.840;2024-03-17T05:15:57;97263.97;;;5.89;96.25
84878;BME280;75140;47.754;8.840;2024-03-17T05:18:23;97256.88;;;5.80;95.54
84878;BME280;75140;47.754;8.840;2024-03-17T05:21:01;97263.41;;;5.85;96.05
84878;BME280;75140;47.754;8.840;2024-03-17T05:23:28;97258.41;;;5.82;95.79
84878;BME280;75140;47.754;8.840;2024-03-17T05:25:54;97259.09;;;5.75;96.05
84878;BME280;75140;47.754;8.840;2024-03-17T05:28:20;97261.72;;;5.75;95.59
84878;BME280;75140;47.754;8.840;2024-03-17T05:30:45;97252.13;;;5.74;96.06
84878;BME280;75140;47.754;8.840;2024-03-17T05:33:11;97253.53;;;5.78;96.24
84878;BME280;75140;47.754;8.840;2024-03-17T05:35:36;97253.81;;;5.65;95.97
84878;BME280;75140;47.754;8.840;2024-03-17T05:38:02;97251.47;;;5.72;96.42
84878;BME280;75140;47.754;8.840;2024-03-17T05:40:27;97254.09;;;5.81;94.35
84878;BME280;75140;47.754;8.840;2024-03-17T05:42:52;97255.63;;;5.74;95.13
84878;BME280;75140;47.754;8.840;2024-03-17T05:45:18;97260.88;;;5.74;94.88
84878;BME280;75140;47.754;8.840;2024-03-17T05:47:43;97252.16;;;5.64;95.19
84878;BME280;75140;47.754;8.840;2024-03-17T05:50:09;97249.66;;;5.72;94.97
84878;BME280;75140;47.754;8.840;2024-03-17T05:52:34;97245.50;;;5.70;94.75
84878;BME280;75140;47.754;8.840;2024-03-17T05:55:00;97246.06;;;5.54;95.01
84878;BME280;75140;47.754;8.840;2024-03-17T05:57:25;97244.41;;;5.63;95.79
84878;BME280;75140;47.754;8.840;2024-03-17T05:59:51;97258.66;;;5.60;95.89
84878;BME280;75140;47.754;8.840;2024-03-17T06:02:16;97249.66;;;5.63;94.67
84878;BME280;75140;47.754;8.840;2024-03-17T06:04:44;97257.03;;;5.59;95.66
84878;BME280;75140;47.754;8.840;2024-03-17T06:07:09;97256.75;;;5.72;95.11
84878;BME280;75140;47.754;8.840;2024-03-17T06:09:34;97265.47;;;5.63;95.30
84878;BME280;75140;47.754;8.840;2024-03-17T06:12:00;97269.50;;;5.57;95.27
84878;BME280;75140;47.754;8.840;2024-03-17T06:14:25;97263.78;;;5.62;95.65
84878;BME280;75140;47.754;8.840;2024-03-17T06:16:51;97267.69;;;5.77;94.50
84878;BME280;75140;47.754;8.840;2024-03-17T06:19:16;97272.13;;;5.76;94.98
84878;BME280;75140;47.754;8.840;2024-03-17T06:21:41;97270.19;;;5.78;95.52
84878;BME280;75140;47.754;8.840;2024-03-17T06:24:07;97275.31;;;5.89;94.99
84878;BME280;75140;47.754;8.840;2024-03-17T06:26:32;97272.66;;;5.80;95.48
84878;BME280;75140;47.754;8.840;2024-03-17T06:29:00;97272.09;;;6.05;94.24
84878;BME280;75140;47.754;8.840;2024-03-17T06:31:25;97272.91;;;6.25;94.17
84878;BME280;75140;47.754;8.840;2024-03-17T06:33:51;97281.75;;;6.24;93.81
84878;BME280;75140;47.754;8.840;2024-03-17T06:36:16;97276.75;;;6.30;93.51
84878;BME280;75140;47.754;8.840;2024-03-17T06:38:43;97274.78;;;6.42;93.93
84878;BME280;75140;47.754;8.840;2024-03-17T06:41:10;97285.53;;;6.58;93.17
84878;BME280;75140;47.754;8.840;2024-03-17T06:43:35;97272.81;;;6.80;92.18
84878;BME280;75140;47.754;8.840;2024-03-17T06:46:01;97277.19;;;7.34;90.38
84878;BME280;75140;47.754;8.840;2024-03-17T06:48:27;97273.38;;;7.81;88.17
84878;BME280;75140;47.754;8.840;2024-03-17T06:50:53;97264.88;;;8.21;86.65
84878;BME280;75140;47.754;8.840;2024-03-17T06:53:23;97262.28;;;8.46;85.28
84878;BME280;75140;47.754;8.840;2024-03-17T06:55:56;97257.47;;;8.84;84.09
84878;BME280;75140;47.754;8.840;2024-03-17T06:58:23;97247.84;;;9.16;82.54
84878;BME280;75140;47.754;8.840;2024-03-17T07:01:01;97244.44;;;9.48;81.27
84878;BME280;75140;47.754;8.840;2024-03-17T07:03:28;97243.91;;;9.36;82.13
84878;BME280;75140;47.754;8.840;2024-03-17T07:05:59;97239.97;;;9.56;81.88
84878;BME280;75140;47.754;8.840;2024-03-17T07:08:27;97244.59;;;9.46;81.79
84878;BME280;75140;47.754;8.840;2024-03-17T07:11:02;97242.28;;;9.67;81.41
84878;BME280;75140;47.754;8.840;2024-03-17T07:13:33;97243.03;;;9.04;84.43
84878;BME280;75140;47.754;8.840;2024-03-17T07:15:59;97241.25;;;9.20;83.71
84878;BME280;75140;47.754;8.840;2024-03-17T07:18:26;97248.84;;;9.23;83.65
84878;BME280;75140;47.754;8.840;2024-03-17T07:20:52;97253.81;;;9.18;83.68
84878;BME280;75140;47.754;8.840;2024-03-17T07:23:18;97255.69;;;8.92;85.12
84878;BME280;75140;47.754;8.840;2024-03-17T07:28:19;97248.94;;;8.98;85.14
84878;BME280;75140;47.754;8.840;2024-03-17T07:30:52;97246.81;;;9.09;85.60
84878;BME280;75140;47.754;8.840;2024-03-17T07:33:18;97239.88;;;9.08;85.08
84878;BME280;75140;47.754;8.840;2024-03-17T07:35:55;97249.00;;;9.14;85.54
84878;BME280;75140;47.754;8.840;2024-03-17T07:38:29;97240.56;;;9.18;85.57
84878;BME280;75140;47.754;8.840;2024-03-17T07:40:59;97235.94;;;9.36;84.79
84878;BME280;75140;47.754;8.840;2024-03-17T07:43:25;97240.63;;;9.34;84.15
84878;BME280;75140;47.754;8.840;2024-03-17T07:48:26;97236.09;;;9.19;85.26
84878;BME280;75140;47.754;8.840;2024-03-17T07:51:05;97236.00;;;9.60;83.75
84878;BME280;75140;47.754;8.840;2024-03-17T07:53:32;97242.81;;;9.55;84.20
84878;BME280;75140;47.754;8.840;2024-03-17T07:58:29;97238.50;;;9.94;83.38
84878;BME280;75140;47.754;8.840;2024-03-17T08:00:59;97231.38;;;9.87;82.93
84878;BME280;75140;47.754;8.840;2024-03-17T08:03:25;97239.66;;;9.84;82.86
84878;BME280;75140;47.754;8.840;2024-03-17T08:05:51;97244.13;;;10.23;81.76
84878;BME280;75140;47.754;8.840;2024-03-17T08:08:17;97243.53;;;11.37;76.47
84878;BME280;75140;47.754;8.840;2024-03-17T08:10:43;97246.34;;;11.13;77.90
84878;BME280;75140;47.754;8.840;2024-03-17T08:13:08;97240.41;;;11.03;77.05
84878;BME280;75140;47.754;8.840;2024-03-17T08:15:38;97232.44;;;10.95;78.15
84878;BME280;75140;47.754;8.840;2024-03-17T08:18:03;97242.59;;;11.22;77.02
84878;BME280;75140;47.754;8.840;2024-03-17T08:20:36;97235.53;;;11.15;77.87
84878;BME280;75140;47.754;8.840;2024-03-17T08:23:01;97219.38;;;10.85;78.71
84878;BME280;75140;47.754;8.840;2024-03-17T08:25:27;97223.38;;;10.81;78.92
84878;BME280;75140;47.754;8.840;2024-03-17T08:27:52;97224.56;;;10.79;79.09
84878;BME280;75140;47.754;8.840;2024-03-17T08:30:17;97230.41;;;10.66;79.80
84878;BME280;75140;47.754;8.840;2024-03-17T08:32:43;97237.97;;;10.31;80.75
84878;BME280;75140;47.754;8.840;2024-03-17T08:35:10;97232.13;;;10.51;80.55
84878;BME280;75140;47.754;8.840;2024-03-17T08:37:38;97224.78;;;10.61;80.58
84878;BME280;75140;47.754;8.840;2024-03-17T08:40:04;97219.66;;;10.60;80.71
84878;BME280;75140;47.754;8.840;2024-03-17T08:42:32;97215.78;;;11.09;78.72
84878;BME280;75140;47.754;8.840;2024-03-17T08:44:57;97218.31;;;11.33;77.59
84878;BME280;75140;47.754;8.840;2024-03-17T08:47:22;97217.75;;;11.68;76.07
84878;BME280;75140;47.754;8.840;2024-03-17T08:49:50;97209.00;;;11.82;75.18
84878;BME280;75140;47.754;8.840;2024-03-17T08:52:16;97213.47;;;11.82;75.76
84878;BME280;75140;47.754;8.840;2024-03-17T08:54:45;97223.44;;;11.88;75.33
84878;BME280;75140;47.754;8.840;2024-03-17T08:57:11;97213.19;;;12.14;74.26
84878;BME280;75140;47.754;8.840;2024-03-17T08:59:36;97223.38;;;12.11;73.87
84878;BME280;75140;47.754;8.840;2024-03-17T09:02:02;97213.09;;;12.07;74.21
84878;BME280;75140;47.754;8.840;2024-03-17T09:04:28;97220.81;;;11.80;74.51
84878;BME280;75140;47.754;8.840;2024-03-17T09:06:54;97218.13;;;11.65;76.14
84878;BME280;75140;47.754;8.840;2024-03-17T09:09:21;97209.44;;;11.63;76.49
84878;BME280;75140;47.754;8.840;2024-03-17T09:11:47;97206.91;;;11.92;76.02
84878;BME280;75140;47.754;8.840;2024-03-17T09:14:12;97215.00;;;11.99;76.41
84878;BME280;75140;47.754;8.840;2024-03-17T09:16:38;97219.06;;;12.10;75.54
84878;BME280;75140;47.754;8.840;2024-03-17T09:19:03;97212.69;;;11.81;76.42
84878;BME280;75140;47.754;8.840;2024-03-17T09:21:28;97219.31;;;12.52;73.46
84878;BME280;75140;47.754;8.840;2024-03-17T09:23:54;97217.28;;;12.39;73.35
84878;BME280;75140;47.754;8.840;2024-03-17T09:26:19;97219.31;;;12.52;74.13
84878;BME280;75140;47.754;8.840;2024-03-17T09:28:45;97205.59;;;12.84;71.92
84878;BME280;75140;47.754;8.840;2024-03-17T09:31:11;97195.47;;;12.94;72.52
84878;BME280;75140;47.754;8.840;2024-03-17T09:33:37;97207.91;;;12.72;72.90
84878;BME280;75140;47.754;8.840;2024-03-17T09:36:05;97197.19;;;12.66;73.65
84878;BME280;75140;47.754;8.840;2024-03-17T09:38:31;97208.00;;;13.08;72.65
84878;BME280;75140;47.754;8.840;2024-03-17T09:40:57;97196.69;;;13.06;72.01
84878;BME280;75140;47.754;8.840;2024-03-17T09:43:25;97200.91;;;13.15;71.80
84878;BME280;75140;47.754;8.840;2024-03-17T09:45:51;97197.84;;;13.54;70.60
84878;BME280;75140;47.754;8.840;2024-03-17T09:48:24;97190.78;;;13.67;69.70
84878;BME280;75140;47.754;8.840;2024-03-17T09:50:51;97187.66;;;13.21;71.12
84878;BME280;75140;47.754;8.840;2024-03-17T09:53:31;97187.72;;;13.91;69.33
84878;BME280;75140;47.754;8.840;2024-03-17T09:56:18;97188.59;;;13.50;70.12
84878;BME280;75140;47.754;8.840;2024-03-17T09:58:48;97175.66;;;13.95;69.62
84878;BME280;75140;47.754;8.840;2024-03-17T10:01:14;97177.50;;;14.22;67.98
84878;BME280;75140;47.754;8.840;2024-03-17T10:06:10;97183.25;;;14.47;67.17
84878;BME280;75140;47.754;8.840;2024-03-17T10:08:58;97170.84;;;14.67;65.00
84878;BME280;75140;47.754;8.840;2024-03-17T10:11:35;97172.38;;;14.89;64.50
84878;BME280;75140;47.754;8.840;2024-03-17T10:14:06;97169.91;;;14.47;65.19
84878;BME280;75140;47.754;8.840;2024-03-17T10:16:34;97167.72;;;14.64;64.68
84878;BME280;75140;47.754;8.840;2024-03-17T10:19:13;97168.91;;;15.02;64.19
84878;BME280;75140;47.754;8.840;2024-03-17T10:21:44;97161.88;;;14.88;65.36
84878;BME280;75140;47.754;8.840;2024-03-17T10:24:23;97171.63;;;14.68;65.86
84878;BME280;75140;47.754;8.840;2024-03-17T10:26:50;97176.75;;;14.28;67.41
84878;BME280;75140;47.754;8.840;2024-03-17T10:29:34;97173.47;;;14.05;66.64
84878;BME280;75140;47.754;8.840;2024-03-17T10:32:11;97182.72;;;14.30;67.33
84878;BME280;75140;47.754;8.840;2024-03-17T10:34:38;97178.25;;;14.37;66.30
84878;BME280;75140;47.754;8.840;2024-03-17T10:37:15;97180.94;;;13.89;67.04
84878;BME280;75140;47.754;8.840;2024-03-17T10:39:41;97186.28;;;13.89;67.17
84878;BME280;75140;47.754;8.840;2024-03-17T10:42:08;97193.47;;;14.16;65.77
84878;BME280;75140;47.754;8.840;2024-03-17T10:44:35;97183.50;;;14.03;67.42
84878;BME280;75140;47.754;8.840;2024-03-17T10:47:03;97184.38;;;13.83;67.66
84878;BME280;75140;47.754;8.840;2024-03-17T10:49:35;97185.66;;;14.14;67.13
84878;BME280;75140;47.754;8.840;2024-03-17T10:52:05;97178.22;;;13.61;68.44
84878;BME280;75140;47.754;8.840;2024-03-17T10:54:31;97200.25;;;13.49;69.71
84878;BME280;75140;47.754;8.840;2024-03-17T10:59:41;97195.22;;;13.81;69.41
84878;BME280;75140;47.754;8.840;2024-03-17T11:02:23;97190.28;;;13.57;68.57
84878;BME280;75140;47.754;8.840;2024-03-17T11:04:54;97189.84;;;13.96;67.81
84878;BME280;75140;47.754;8.840;2024-03-17T11:07:20;97188.75;;;13.69;68.92
84878;BME280;75140;47.754;8.840;2024-03-17T11:09:47;97185.19;;;13.62;69.73
84878;BME280;75140;47.754;8.840;2024-03-17T11:12:41;97192.00;;;13.65;68.94
84878;BME280;75140;47.754;8.840;2024-03-17T11:17:51;97192.81;;;13.44;70.43
84878;BME280;75140;47.754;8.840;2024-03-17T11:20:24;97190.03;;;13.31;70.15
84878;BME280;75140;47.754;8.840;2024-03-17T11:22:59;97200.75;;;13.38;70.52
84878;BME280;75140;47.754;8.840;2024-03-17T11:28:03;97197.66;;;13.34;70.19
84878;BME280;75140;47.754;8.840;2024-03-17T11:30:48;97204.03;;;13.18;70.14
84878;BME280;75140;47.754;8.840;2024-03-17T11:39:09;97208.69;;;13.31;69.99
84878;BME280;75140;47.754;8.840;2024-03-17T11:41:49;97200.78;;;13.23;69.79
84878;BME280;75140;47.754;8.840;2024-03-17T11:46:57;97200.31;;;13.34;69.30
84878;BME280;75140;47.754;8.840;2024-03-17T11:49:32;97199.66;;;13.32;69.08
84878;BME280;75140;47.754;8.840;2024-03-17T11:52:00;97195.25;;;13.24;69.04
84878;BME280;75140;47.754;8.840;2024-03-17T11:54:27;97194.34;;;13.32;68.96
84878;BME280;75140;47.754;8.840;2024-03-17T11:56:56;97182.19;;;13.08;68.73
84878;BME280;75140;47.754;8.840;2024-03-17T11:59:22;97185.75;;;13.37;68.90
84878;BME280;75140;47.754;8.840;2024-03-17T12:01:49;97185.75;;;13.37;68.45
84878;BME280;75140;47.754;8.840;2024-03-17T12:04:16;97179.56;;;13.30;69.06
84878;BME280;75140;47.754;8.840;2024-03-17T12:06:47;97167.00;;;12.94;68.12
84878;BME280;75140;47.754;8.840;2024-03-17T12:09:21;97167.16;;;13.22;68.30
84878;BME280;75140;47.754;8.840;2024-03-17T12:11:57;97167.06;;;13.01;69.25
84878;BME280;75140;47.754;8.840;2024-03-17T12:14:22;97159.94;;;13.01;68.90
84878;BME280;75140;47.754;8.840;2024-03-17T12:16:54;97152.66;;;13.10;69.47
84878;BME280;75140;47.754;8.840;2024-03-17T12:19:20;97150.78;;;13.25;69.75
84878;BME280;75140;47.754;8.840;2024-03-17T12:22:00;97153.75;;;13.15;70.65
84878;BME280;75140;47.754;8.840;2024-03-17T12:24:36;97155.50;;;13.08;69.76
84878;BME280;75140;47.754;8.840;2024-03-17T12:27:05;97152.50;;;13.33;69.31
84878;BME280;75140;47.754;8.840;2024-03-17T12:29:34;97153.56;;;13.17;70.46
84878;BME280;75140;47.754;8.840;2024-03-17T12:34:45;97147.50;;;12.94;71.33
84878;BME280;75140;47.754;8.840;2024-03-17T12:37:19;97149.19;;;12.95;71.54
84878;BME280;75140;47.754;8.840;2024-03-17T12:39:46;97141.19;;;12.95;71.86
84878;BME280;75140;47.754;8.840;2024-03-17T12:42:13;97146.44;;;13.03;71.47
84878;BME280;75140;47.754;8.840;2024-03-17T12:44:40;97145.03;;;13.07;70.74
84878;BME280;75140;47.754;8.840;2024-03-17T12:47:14;97138.13;;;12.98;71.30
84878;BME280;75140;47.754;8.840;2024-03-17T12:49:47;97139.53;;;13.08;71.62
84878;BME280;75140;47.754;8.840;2024-03-17T12:52:20;97135.56;;;13.04;71.59
84878;BME280;75140;47.754;8.840;2024-03-17T12:55:08;97138.88;;;13.06;72.30
84878;BME280;75140;47.754;8.840;2024-03-17T12:58:04;97147.88;;;12.91;73.32
84878;BME280;75140;47.754;8.840;2024-03-17T13:01:01;97140.81;;;12.98;73.99
84878;BME280;75140;47.754;8.840;2024-03-17T13:03:30;97142.19;;;12.94;73.51
84878;BME280;75140;47.754;8.840;2024-03-17T13:05:57;97132.09;;;13.04;72.33
84878;BME280;75140;47.754;8.840;2024-03-17T13:08:23;97127.22;;;12.93;73.50
84878;BME280;75140;47.754;8.840;2024-03-17T13:10:48;97122.31;;;13.11;73.11
84878;BME280;75140;47.754;8.840;2024-03-17T13:13:15;97126.00;;;13.10;73.40
84878;BME280;75140;47.754;8.840;2024-03-17T13:15:42;97125.44;;;13.00;73.11
84878;BME280;75140;47.754;8.840;2024-03-17T13:18:08;97119.00;;;12.73;72.76
84878;BME280;75140;47.754;8.840;2024-03-17T13:20:34;97123.84;;;12.84;72.26
84878;BME280;75140;47.754;8.840;2024-03-17T13:23:00;97119.47;;;12.77;72.22
84878;BME280;75140;47.754;8.840;2024-03-17T13:25:28;97130.13;;;12.77;72.95
84878;BME280;75140;47.754;8.840;2024-03-17T13:28:04;97127.28;;;12.64;73.16
84878;BME280;75140;47.754;8.840;2024-03-17T13:30:30;97133.88;;;12.53;73.74
84878;BME280;75140;47.754;8.840;2024-03-17T13:32:56;97130.03;;;12.56;74.05
84878;BME280;75140;47.754;8.840;2024-03-17T13:35:26;97119.00;;;12.59;74.97
84878;BME280;75140;47.754;8.840;2024-03-17T13:37:52;97121.44;;;12.39;75.25
84878;BME280;75140;47.754;8.840;2024-03-17T13:40:20;97111.06;;;12.44;75.98
84878;BME280;75140;47.754;8.840;2024-03-17T13:42:46;97117.38;;;12.43;77.60